• Join FlightAware (Why Join?)
  • Login
  • US Flag 
03:05AM EDT


 

Airport Tracker/Info


-or-


 

Live Flight TrackerFlight Track Log ✈ FIV606 ✈ 07-May-2013 ✈ KBFI - KLNK

Flight Track Log - Related Links

Times and Time Zones

All times are in EDT time to prevent confusion due to time zone crossing. See the FIV606 flight status page for this flight to view local times or setup timezone preferences in your user account.

Time Position Orientation Groundspeed Altitude Reporting Facility
EDT Latitude Longitude Course Direction KTS MPH feet Rate Location/Type
01:19PM 47.5178 -122.2942 136° Southeast 162 186 1,100  Level Seattle Center
01:20PM 47.4686 -122.2236 136° Southeast 231 266 4,700 3,720 Climbing Seattle Center
01:21PM 47.4356 -122.1208 115° Southeast 275 316 9,100 3,660 Climbing Seattle Center
01:22PM 47.4278 -121.9994 95° East 307 353 12,100 3,180 Climbing Seattle Center
01:23PM 47.4108 -121.8703 101° East 322 371 15,600 2,760 Climbing Seattle Center
01:24PM 47.3942 -121.7428 101° East 339 390 17,800 2,340 Climbing Seattle Center
01:25PM 47.3753 -121.6006 101° East 354 407 20,400 2,340 Climbing Seattle Center
01:26PM 47.3561 -121.4556 101° East 364 419 22,600 2,040 Climbing Seattle Center
01:27PM 47.3361 -121.3061 101° East 373 429 24,600 2,040 Climbing Seattle Center
01:28PM 47.3100 -121.1206 102° East 387 445 26,800 2,040 Climbing Seattle Center
01:29PM 47.2883 -120.9628 101° East 396 456 28,800 1,860 Climbing Seattle Center
01:30PM 47.2689 -120.8175 101° East 394 453 30,600 1,680 Climbing Seattle Center
01:31PM 47.2469 -120.6622 102° East 391 450 32,300 1,800 Climbing Seattle Center
01:32PM 47.2253 -120.5067 102° East 389 448 34,300 1,740 Climbing Seattle Center
01:33PM 47.2031 -120.3581 102° East 379 436 35,900 1,440 Climbing Seattle Center
01:34PM 47.1819 -120.2097 102° East 373 429 37,300 1,260 Climbing Seattle Center
01:35PM 47.1553 -120.0289 102° East 376 433 38,500 1,080 Climbing Seattle Center
01:36PM 47.1342 -119.8828 102° East 372 428 39,500 840 Climbing Seattle Center
01:37PM 47.1108 -119.7369 103° East 370 426 40,300 720 Climbing Seattle Center
01:38PM 47.0869 -119.5786 102° East 380 437 41,000 300 Climbing Seattle Center
01:39PM 47.0647 -119.4250 102° East 384 442 41,000  Level Seattle Center
01:40PM 47.0397 -119.2656 103° East 397 457 41,000  Level Seattle Center
01:41PM 47.0131 -119.0997 103° East 414 476 41,000  Level Seattle Center
01:42PM 46.9869 -118.9342 103° East 417 480 41,000  Level Seattle Center
01:43PM 46.9611 -118.7683 103° East 418 481 41,000  Level Seattle Center
01:44PM 46.9339 -118.6000 103° East 425 489 41,000  Level Seattle Center
01:45PM 46.9069 -118.4314 103° East 426 490 41,000  Level Seattle Center
01:46PM 46.8806 -118.2656 103° East 423 487 41,000  Level Seattle Center
01:47PM 46.8533 -118.0975 103° East 421 484 41,000  Level Seattle Center
01:48PM 46.8256 -117.9328 104° East 419 482 41,000  Level Seattle Center
01:49PM 46.7975 -117.7675 104° East 424 488 41,000  Level Seattle Center
01:50PM 46.7647 -117.5703 104° East 418 481 41,000  Level Seattle Center
01:51PM 46.7356 -117.4058 104° East 418 481 41,000  Level Seattle Center
01:52PM 46.7083 -117.2422 104° East 421 484 41,000  Level Seattle Center
01:53PM 46.6789 -117.0786 105° East 420 483 41,000  Level Seattle Center
01:54PM 46.6494 -116.9053 104° East 417 480 41,000  Level Seattle Center
01:55PM 46.6208 -116.7469 105° East 421 484 41,000  Level Seattle Center
01:56PM 46.5933 -116.5925 104° East 416 479 41,000  Level Seattle Center
01:57PM 46.5667 -116.4408 104° East 413 475 41,000  Level Seattle Center
01:58PM 46.5367 -116.2814 105° East 412 474 41,000  Level Seattle Center
01:59PM 46.5014 -116.0867 105° East 417 480 41,000  Level Seattle Center
02:00PM 46.4719 -115.9292 105° East 412 474 41,000  Level Seattle Center
02:01PM 46.4422 -115.7681 105° East 414 476 41,000  Level Seattle Center
02:02PM 46.4111 -115.6067 106° East 416 479 41,000  Level Seattle Center
02:03PM 46.3794 -115.4447 106° East 420 483 41,000  Level Seattle Center
02:04PM 46.3481 -115.2875 106° East 415 478 41,000  Level Seattle Center
02:06PM 46.3183 -115.1292 105° East 412 474 41,000  Level Seattle Center
02:07PM 46.2806 -114.9364 106° East 412 474 41,000  Level Salt Lake Center
02:08PM 46.2492 -114.7775 106° East 414 476 41,000  Level Salt Lake Center
02:09PM 46.2175 -114.6183 106° East 413 475 41,000  Level Salt Lake Center
02:10PM 46.1858 -114.4614 106° East 412 474 41,000  Level Salt Lake Center
02:11PM 46.1542 -114.3033 106° East 412 474 41,000  Level Salt Lake Center
02:12PM 46.1214 -114.1481 107° East 410 472 41,000  Level Salt Lake Center
02:13PM 46.0831 -113.9603 106° East 408 470 41,000  Level Salt Lake Center
02:14PM 46.0500 -113.8036 107° East 410 472 41,000  Level Salt Lake Center
02:15PM 46.0175 -113.6472 107° East 411 473 41,000  Level Salt Lake Center
02:16PM 45.9794 -113.4708 107° East 409 471 41,000  Level Salt Lake Center
02:17PM 45.9456 -113.3136 107° East 412 474 41,000  Level Salt Lake Center
02:18PM 45.9108 -113.1556 107° East 414 476 41,000  Level Salt Lake Center
02:19PM 45.8781 -112.9967 106° East 415 478 41,000  Level Salt Lake Center
02:20PM 45.8428 -112.8381 108° East 416 479 41,000  Level Salt Lake Center
02:21PM 45.8092 -112.6811 107° East 413 475 41,000  Level Salt Lake Center
02:22PM 45.7736 -112.5244 108° East 415 478 41,000  Level Salt Lake Center
02:23PM 45.7306 -112.3364 108° East 415 478 41,000  Level Salt Lake Center
02:24PM 45.6967 -112.1783 107° East 416 479 41,000  Level Salt Lake Center
02:25PM 45.6606 -112.0233 108° East 414 476 41,000  Level Salt Lake Center
02:26PM 45.6247 -111.8672 108° East 415 478 41,000  Level Salt Lake Center
02:27PM 45.5900 -111.7100 107° East 417 480 41,000  Level Salt Lake Center
02:28PM 45.5533 -111.5544 109° East 417 480 41,000  Level Salt Lake Center
02:29PM 45.5106 -111.3692 108° East 415 478 41,000  Level Salt Lake Center
02:30PM 45.4739 -111.2150 109° East 416 479 41,000  Level Salt Lake Center
02:31PM 45.4386 -111.0603 108° East 416 479 41,000  Level Salt Lake Center
02:32PM 45.4011 -110.9047 109° East 418 481 41,000  Level Salt Lake Center
02:33PM 45.3636 -110.7503 109° East 416 479 41,000  Level Salt Lake Center
02:34PM 45.3225 -110.5775 109° East 420 483 41,000  Level Salt Lake Center
02:35PM 45.2856 -110.4269 109° East 421 484 41,000  Level Salt Lake Center
02:36PM 45.2428 -110.2519 109° East 421 484 41,000  Level Salt Lake Center
02:38PM 45.2044 -110.1025 110° East 420 483 41,000  Level Salt Lake Center
02:39PM 45.1611 -109.9286 109° East 418 481 41,000  Level Salt Lake Center
02:40PM 45.1247 -109.7778 109° East 422 486 41,000  Level Salt Lake Center
02:41PM 45.0814 -109.6039 109° East 419 482 41,000  Level Salt Lake Center
02:42PM 45.0433 -109.4542 110° East 422 486 41,000  Level Salt Lake Center
02:43PM 44.9989 -109.2806 110° East 422 486 41,000  Level Salt Lake Center
02:44PM 44.9608 -109.1328 110° East 419 482 41,000  Level Salt Lake Center
02:45PM 44.9222 -108.9833 110° East 421 484 41,000  Level Salt Lake Center
02:46PM 44.8758 -108.8103 111° Southeast 422 486 41,000  Level Salt Lake Center
02:47PM 44.8378 -108.6617 110° East 422 486 41,000  Level Salt Lake Center
02:48PM 44.7914 -108.4886 111° Southeast 424 488 41,000  Level Salt Lake Center
02:49PM 44.7514 -108.3406 111° Southeast 425 489 41,000  Level Salt Lake Center
02:50PM 44.7039 -108.1689 111° Southeast 425 489 41,000  Level Salt Lake Center
02:51PM 44.6631 -108.0208 111° Southeast 428 493 41,000  Level Salt Lake Center
02:52PM 44.6178 -107.8486 110° East 428 493 41,000  Level Salt Lake Center
02:53PM 44.5775 -107.7019 111° Southeast 426 490 41,000  Level Salt Lake Center
02:54PM 44.5300 -107.5300 111° Southeast 425 489 41,000  Level Salt Lake Center
02:55PM 44.4892 -107.3822 111° Southeast 427 491 41,000  Level Salt Lake Center
02:56PM 44.4408 -107.2092 111° Southeast 428 493 41,000  Level Salt Lake Center
02:57PM 44.3992 -107.0617 112° Southeast 427 491 41,000  Level Salt Lake Center
02:58PM 44.3572 -106.9139 112° Southeast 428 493 41,000  Level Salt Lake Center
02:59PM 44.3089 -106.7414 111° Southeast 428 493 41,000  Level Salt Lake Center
03:00PM 44.2669 -106.5925 111° Southeast 430 495 41,000  Level Salt Lake Center
03:01PM 44.2172 -106.4189 112° Southeast 432 497 41,000  Level Salt Lake Center
03:02PM 44.1753 -106.2706 111° Southeast 431 496 41,000  Level Salt Lake Center
03:03PM 44.1286 -106.1067 112° Southeast 429 494 41,000  Level Salt Lake Center
03:04PM 44.0847 -105.9594 112° Southeast 430 495 41,000  Level Salt Lake Center
03:05PM 44.0325 -105.7883 113° Southeast 432 497 41,000  Level Denver Center
03:06PM 43.9814 -105.6169 112° Southeast 432 497 41,000  Level Denver Center
03:07PM 43.9381 -105.4689 112° Southeast 432 497 41,000  Level Denver Center
03:08PM 43.8939 -105.3217 113° Southeast 433 498 41,000  Level Denver Center
03:09PM 43.8408 -105.1494 113° Southeast 435 501 41,000  Level Denver Center
03:10PM 43.7964 -105.0011 112° Southeast 435 501 41,000  Level Denver Center
03:12PM 43.7431 -104.8283 113° Southeast 437 503 41,000  Level Denver Center
03:13PM 43.6967 -104.6797 113° Southeast 438 504 41,000  Level Denver Center
03:14PM 43.6425 -104.5061 113° Southeast 439 505 41,000  Level Denver Center
03:15PM 43.5956 -104.3564 113° Southeast 442 509 41,000  Level Denver Center
03:16PM 43.5492 -104.2069 113° Southeast 442 509 41,000  Level Denver Center
03:17PM 43.4928 -104.0322 114° Southeast 445 512 41,000  Level Denver Center
03:18PM 43.4467 -103.8831 113° Southeast 444 511 41,000  Level Denver Center
03:19PM 43.3900 -103.7086 114° Southeast 446 513 41,000  Level Denver Center
03:20PM 43.3414 -103.5581 114° Southeast 447 514 41,000  Level Denver Center
03:21PM 43.2842 -103.3825 114° Southeast 451 519 41,000  Level Denver Center
03:22PM 43.2358 -103.2328 114° Southeast 448 516 41,000  Level Denver Center
03:23PM 43.1864 -103.0822 114° Southeast 451 519 41,000  Level Denver Center
03:24PM 43.1289 -102.9064 114° Southeast 452 520 41,000  Level Denver Center
03:25PM 43.0783 -102.7578 115° Southeast 451 519 41,000  Level Denver Center
03:26PM 43.0192 -102.5811 115° Southeast 456 525 41,000  Level Denver Center
03:27PM 42.9697 -102.4322 114° Southeast 451 519 41,000  Level Denver Center
03:28PM 42.9103 -102.2578 115° Southeast 453 521 41,000  Level Denver Center
03:29PM 42.8592 -102.1092 115° Southeast 452 520 41,000  Level Denver Center
03:30PM 42.8083 -101.9611 115° Southeast 452 520 41,000  Level Denver Center
03:31PM 42.7525 -101.7931 114° Southeast 451 519 41,000  Level Denver Center
03:32PM 42.6917 -101.6219 116° Southeast 451 519 41,000  Level Denver Center
03:33PM 42.6408 -101.4736 115° Southeast 451 519 41,000  Level Denver Center
03:34PM 42.5886 -101.3250 115° Southeast 453 521 41,000  Level Denver Center
03:35PM 42.5278 -101.1525 116° Southeast 455 524 41,000  Level Denver Center
03:36PM 42.4747 -101.0067 116° Southeast 450 518 41,000  Level Denver Center
03:37PM 42.4139 -100.8322 115° Southeast 457 526 41,000  Level Denver Center
03:38PM 42.3606 -100.6839 116° Southeast 458 527 41,000  Level Denver Center
03:39PM 42.2989 -100.5125 116° Southeast 456 525 41,000  Level Denver Center
03:40PM 42.2450 -100.3653 116° Southeast 456 525 41,000  Level Denver Center
03:41PM 42.1919 -100.2172 116° Southeast 457 526 41,000  Level Denver Center
03:42PM 42.1506 -100.1019 116° Southeast 459 528 41,000  Level Minneapolis Center
03:42PM 42.1289 -100.0447 117° Southeast 457 526 41,000  Level Denver Center
03:43PM 42.0750 -99.8983 116° Southeast 456 525 41,000 -480 Level Denver Center
03:44PM 42.0117 -99.7253 116° Southeast 460 529 40,100 -1,080 Descending Denver Center
03:45PM 41.9564 -99.5811 117° Southeast 456 525 38,900 -1,200 Descending Denver Center
03:47PM 41.8981 -99.4228 116° Southeast 469 540 37,700 -1,200 Descending Denver Center
03:48PM 41.8389 -99.2647 117° Southeast 472 543 36,500 -1,200 Descending Denver Center
03:49PM 41.7792 -99.1075 117° Southeast 471 542 35,300 -900 Descending Denver Center
03:49PM 41.7336 -98.9842 116° Southeast 468 539 35,000 -180 Descending Minneapolis Center
03:50PM 41.6728 -98.8289 118° Southeast 467 537 35,000 -780 Level Minneapolis Center
03:51PM 41.6133 -98.6744 117° Southeast 467 537 33,500 -1,560 Descending Minneapolis Center
03:52PM 41.5547 -98.5225 117° Southeast 463 533 31,800 -1,740 Descending Minneapolis Center
03:53PM 41.4964 -98.3697 117° Southeast 457 526 30,000 -1,980 Descending Minneapolis Center
03:54PM 41.4231 -98.1831 118° Southeast 466 536 27,800 -1,920 Descending Minneapolis Center
03:56PM 41.3650 -98.0383 118° Southeast 462 532 26,100 -1,920 Descending Minneapolis Center
03:57PM 41.3056 -97.8875 118° Southeast 448 516 23,900 -2,100 Descending Minneapolis Center
03:58PM 41.2500 -97.7464 118° Southeast 434 499 21,800 -2,040 Descending Minneapolis Center
03:59PM 41.1961 -97.6142 118° Southeast 415 478 19,700 -2,400 Descending Minneapolis Center
04:00PM 41.1258 -97.5111 132° Southeast 382 440 16,900 -3,180 Descending Minneapolis Center
04:01PM 41.0303 -97.4164 143° Southeast 357 411 13,500 -2,880 Descending Minneapolis Center
04:02PM 40.9631 -97.3314 136° Southeast 336 387 11,300 -1,920 Descending Minneapolis Center
04:03PM 40.9736 -97.2122 83° East 311 358 9,500 -2,220 Descending Minneapolis Center
04:04PM 40.9589 -97.1031 100° East 297 342 6,800 -2,640 Descending Minneapolis Center
04:05PM 40.9706 -96.9967 82° East 293 337 4,100 -1,920 Descending Minneapolis Center
04:06PM 40.9314 -96.9100 121° Southeast 238 274 3,000 -600 Descending Minneapolis Center
04:07PM 40.9103 -96.8350 110° East 204 235 3,000 -540 Level Minneapolis Center
04:08PM 40.8803 -96.7886 131° Southeast 151 174 2,000 -1,020 Descending Minneapolis Center
04:10PM 40.8500 -96.7500 90° East  Level FlightAware Approximate
04:17PM 40.8509 -96.7591 90° East  Level Estimated